Time;durP1;ratioP1;P1;durP2;ratioP2;P2;SDS_P1;SDS_P2;PMS_P1;PMS_P2;Temp;Humidity;BMP_temperature;BMP_pressure;BME280_temperature;BME280_humidity;BME280_pressure;Samples;Min_cycle;Max_cycle;Signal;HPM_P1;HPM_P2
2023/03/01 00:01:15;;;;;;;21.60;14.87;;;1.80;99.90;;;;;;4994198;28;20201;-48
2023/03/01 00:03:42;;;;;;;23.63;15.33;;;1.80;99.90;;;;;;4991424;28;20202;-47
2023/03/01 00:06:10;;;;;;;28.77;22.07;;;1.70;99.90;;;;;;4993764;28;20197;-48
2023/03/01 00:08:38;;;;;;;24.67;17.30;;;1.70;99.90;;;;;;4994763;28;20225;-48
2023/03/01 00:11:07;;;;;;;21.23;15.00;;;1.70;99.90;;;;;;4994190;28;20198;-49
2023/03/01 00:13:34;;;;;;;19.90;14.23;;;1.70;99.90;;;;;;4994305;28;20237;-48
2023/03/01 00:16:03;;;;;;;21.30;13.47;;;1.80;99.90;;;;;;4992478;28;20203;-47
2023/03/01 00:18:30;;;;;;;23.90;14.50;;;1.80;99.90;;;;;;4993527;28;20303;-49
2023/03/01 00:20:57;;;;;;;19.43;13.40;;;1.70;99.90;;;;;;4986720;28;20670;-48
2023/03/01 00:23:24;;;;;;;19.50;12.33;;;1.70;99.90;;;;;;4994352;28;20276;-48
2023/03/01 00:25:53;;;;;;;20.60;13.17;;;1.60;99.90;;;;;;4991964;28;20743;-49
2023/03/01 00:28:21;;;;;;;16.67;12.33;;;1.60;99.90;;;;;;4994269;28;20263;-48
2023/03/01 00:30:48;;;;;;;23.90;14.07;;;1.60;99.90;;;;;;4993224;28;20380;-48
2023/03/01 00:33:15;;;;;;;21.97;13.60;;;1.60;99.90;;;;;;4992189;28;20263;-50
2023/03/01 00:35:42;;;;;;;22.53;14.33;;;1.70;99.90;;;;;;4991516;28;20203;-48
2023/03/01 00:38:09;;;;;;;23.83;13.60;;;1.60;99.90;;;;;;4993192;28;20221;-48
2023/03/01 00:40:37;;;;;;;23.47;14.67;;;1.60;99.90;;;;;;4993040;28;20726;-48
2023/03/01 00:43:05;;;;;;;23.57;14.40;;;1.60;99.90;;;;;;4992520;28;20292;-48
2023/03/01 00:45:34;;;;;;;22.53;14.70;;;1.60;99.90;;;;;;4992391;28;20247;-50
2023/03/01 00:48:01;;;;;;;22.33;12.80;;;1.60;99.90;;;;;;4991424;28;20231;-48
2023/03/01 00:50:28;;;;;;;20.47;13.00;;;1.70;99.90;;;;;;4992244;28;20652;-48
2023/03/01 00:52:55;;;;;;;19.57;13.27;;;1.70;99.90;;;;;;4990693;28;20252;-48
2023/03/01 00:55:23;;;;;;;19.57;13.57;;;1.70;99.90;;;;;;4983826;28;20205;-47
2023/03/01 00:57:50;;;;;;;20.67;13.73;;;1.70;99.90;;;;;;4992104;28;20282;-48
2023/03/01 01:00:20;;;;;;;19.60;12.60;;;1.80;99.90;;;;;;4992376;28;20197;-49
2023/03/01 01:02:48;;;;;;;19.73;13.37;;;1.70;99.90;;;;;;4992837;28;20684;-48
2023/03/01 01:05:20;;;;;;;17.03;12.67;;;1.70;99.90;;;;;;4989891;28;20264;-47
2023/03/01 01:07:48;;;;;;;18.80;12.83;;;1.80;99.90;;;;;;4992711;28;20224;-49
2023/03/01 01:10:16;;;;;;;21.73;13.77;;;1.90;99.90;;;;;;4985844;28;20225;-47
2023/03/01 01:12:48;;;;;;;22.03;12.77;;;1.90;99.90;;;;;;4991855;28;20208;-50
2023/03/01 01:15:16;;;;;;;20.50;14.10;;;1.90;99.90;;;;;;4993558;28;20668;-48
2023/03/01 01:17:44;;;;;;;22.27;13.40;;;1.90;99.90;;;;;;4991283;28;20222;-47
2023/03/01 01:20:12;;;;;;;21.60;14.03;;;1.80;99.90;;;;;;4990504;28;20200;-47
2023/03/01 01:22:39;;;;;;;22.40;13.63;;;1.70;99.90;;;;;;4992322;28;20667;-47
2023/03/01 01:25:07;;;;;;;21.30;13.23;;;1.60;99.90;;;;;;4988248;28;20207;-49
2023/03/01 01:27:34;;;;;;;19.27;13.53;;;1.50;99.90;;;;;;4991487;28;20224;-49
2023/03/01 01:30:01;;;;;;;19.73;13.93;;;1.50;99.90;;;;;;4991175;28;20757;-48
2023/03/01 01:32:28;;;;;;;20.27;13.73;;;1.50;99.90;;;;;;4987557;28;20678;-49
2023/03/01 01:34:56;;;;;;;19.10;13.97;;;1.50;99.90;;;;;;4990795;28;20210;-48
2023/03/01 01:37:30;;;;;;;20.23;12.80;;;1.50;99.90;;;;;;4990995;28;20205;-48
2023/03/01 01:39:57;;;;;;;23.83;15.33;;;1.50;99.90;;;;;;4989166;28;20280;-48
2023/03/01 01:42:24;;;;;;;23.63;14.13;;;1.60;99.90;;;;;;4992050;28;20248;-49
2023/03/01 01:45:39;;;;;;;20.93;13.43;;;1.60;99.90;;;;;;4992539;28;20733;-47
2023/03/01 01:48:11;;;;;;;23.43;16.10;;;1.70;99.90;;;;;;4906096;29;20714;-48
2023/03/01 01:50:41;;;;;;;25.37;18.23;;;1.60;99.90;;;;;;4910582;29;20231;-48
2023/03/01 01:53:12;;;;;;;22.60;15.30;;;1.60;99.90;;;;;;4948360;28;20640;-48
2023/03/01 01:55:43;;;;;;;20.20;15.17;;;1.60;99.90;;;;;;4992140;28;20208;-48
2023/03/01 01:58:14;;;;;;;23.00;16.60;;;1.60;99.90;;;;;;4991562;28;20593;-50
2023/03/01 02:00:41;;;;;;;21.83;14.43;;;1.70;99.90;;;;;;4991066;28;20277;-47
2023/03/01 02:03:12;;;;;;;24.80;14.63;;;1.60;99.90;;;;;;4990796;28;21636;-47
2023/03/01 02:05:47;;;;;;;21.47;14.73;;;1.60;99.90;;;;;;4990400;28;21114;-47
2023/03/01 02:08:16;;;;;;;21.37;13.77;;;1.60;99.90;;;;;;4985845;28;20274;-48
2023/03/01 02:10:43;;;;;;;21.43;14.13;;;1.50;99.90;;;;;;4989533;28;20275;-48
2023/03/01 02:13:11;;;;;;;22.27;14.33;;;1.50;99.90;;;;;;4992649;28;20196;-47
2023/03/01 02:15:40;;;;;;;26.07;17.17;;;1.50;99.90;;;;;;4991343;28;20208;-48
2023/03/01 02:18:08;;;;;;;19.77;13.17;;;1.50;99.90;;;;;;4991102;28;20696;-48
2023/03/01 02:20:41;;;;;;;21.73;13.23;;;1.50;99.90;;;;;;4989578;28;20257;-48
2023/03/01 02:23:09;;;;;;;20.70;13.80;;;1.50;99.90;;;;;;4989171;28;20205;-48
2023/03/01 02:25:45;;;;;;;23.40;13.53;;;1.50;99.90;;;;;;4990754;28;20197;-48
2023/03/01 02:28:23;;;;;;;25.23;14.93;;;1.50;99.90;;;;;;4981683;28;20647;-47
2023/03/01 02:33:38;;;;;;;27.37;15.73;;;1.70;99.90;;;;;;4990348;28;20692;-47
2023/03/01 02:36:09;;;;;;;19.93;12.90;;;1.60;99.90;;;;;;4990616;28;20208;-48
2023/03/01 02:38:36;;;;;;;26.40;15.77;;;1.50;99.90;;;;;;4988309;28;20275;-48
2023/03/01 02:41:05;;;;;;;25.50;17.33;;;1.60;99.90;;;;;;4986410;28;20209;-48
2023/03/01 02:43:35;;;;;;;22.90;14.93;;;1.50;99.90;;;;;;4980951;28;20197;-49
2023/03/01 02:46:05;;;;;;;24.87;13.03;;;1.50;99.90;;;;;;4993732;28;20200;-49
2023/03/01 02:48:42;;;;;;;23.40;15.13;;;1.50;99.90;;;;;;4992069;28;20321;-48
2023/03/01 02:51:20;;;;;;;21.03;13.27;;;1.60;99.90;;;;;;4990930;28;20593;-48
2023/03/01 02:54:00;;;;;;;19.57;12.77;;;1.50;99.90;;;;;;4990436;28;20223;-48
2023/03/01 02:56:27;;;;;;;19.67;13.63;;;1.40;99.90;;;;;;4989442;28;20210;-49
2023/03/01 02:59:00;;;;;;;21.10;13.10;;;1.40;99.90;;;;;;4992641;28;20706;-48
2023/03/01 03:01:36;;;;;;;21.87;13.50;;;1.30;99.90;;;;;;4995236;28;20197;-48
2023/03/01 03:04:04;;;;;;;22.97;15.60;;;1.30;99.90;;;;;;4989872;28;20200;-49
2023/03/01 03:06:31;;;;;;;24.13;14.53;;;1.40;99.90;;;;;;4995126;28;20205;-47
2023/03/01 03:08:58;;;;;;;21.17;14.47;;;1.50;99.90;;;;;;4987738;28;20220;-49
2023/03/01 03:11:25;;;;;;;18.63;14.13;;;1.50;99.90;;;;;;4994376;28;20275;-47
2023/03/01 03:13:52;;;;;;;23.37;15.83;;;1.50;99.90;;;;;;4995841;28;20247;-48
2023/03/01 03:16:21;;;;;;;19.50;12.90;;;1.50;99.90;;;;;;4994983;28;20231;-48
2023/03/01 03:18:48;;;;;;;21.50;13.70;;;1.50;99.90;;;;;;4994642;28;20260;-49
2023/03/01 03:21:16;;;;;;;21.97;14.17;;;1.50;99.90;;;;;;4994598;28;20651;-48
2023/03/01 03:23:43;;;;;;;23.30;14.60;;;1.50;99.90;;;;;;4995409;28;20619;-48
2023/03/01 03:26:14;;;;;;;22.30;14.47;;;1.50;99.90;;;;;;4993526;28;20208;-48
2023/03/01 03:28:42;;;;;;;24.27;16.83;;;1.50;99.90;;;;;;4993412;28;20236;-50
2023/03/01 03:31:09;;;;;;;20.73;12.50;;;1.40;99.90;;;;;;4986720;28;20267;-48
2023/03/01 03:33:38;;;;;;;22.03;14.30;;;1.40;99.90;;;;;;4994594;28;20209;-48
2023/03/01 03:36:05;;;;;;;21.47;14.47;;;1.30;99.90;;;;;;4993644;28;20614;-48
2023/03/01 03:38:33;;;;;;;24.97;15.77;;;1.30;99.90;;;;;;4995072;28;20217;-48
2023/03/01 03:41:04;;;;;;;21.60;15.03;;;1.20;99.90;;;;;;4991627;28;20204;-47
2023/03/01 03:43:33;;;;;;;22.63;13.60;;;1.30;99.90;;;;;;4993890;28;20668;-48
2023/03/01 03:46:00;;;;;;;19.60;13.30;;;1.30;99.90;;;;;;4987467;28;20205;-47
2023/03/01 03:48:28;;;;;;;19.37;13.03;;;1.30;99.90;;;;;;4995174;28;20228;-50
2023/03/01 03:50:57;;;;;;;21.43;17.37;;;1.30;99.90;;;;;;4993762;28;20606;-48
2023/03/01 03:53:29;;;;;;;20.97;13.73;;;1.30;99.90;;;;;;4993890;28;20202;-48
2023/03/01 03:55:56;;;;;;;23.13;13.97;;;1.40;99.90;;;;;;4992937;28;20625;-48
2023/03/01 03:58:25;;;;;;;21.10;15.43;;;1.30;99.90;;;;;;4993557;28;20279;-49
2023/03/01 04:00:55;;;;;;;18.77;14.07;;;1.30;99.90;;;;;;4993534;28;20209;-48
2023/03/01 04:03:23;;;;;;;18.17;12.93;;;1.30;99.90;;;;;;4994327;28;20233;-48
2023/03/01 04:05:52;;;;;;;20.33;12.77;;;1.40;99.90;;;;;;4993553;28;20665;-48
2023/03/01 04:08:22;;;;;;;17.57;12.97;;;1.30;99.90;;;;;;4994281;28;20698;-49
2023/03/01 04:10:51;;;;;;;22.30;15.13;;;1.30;99.90;;;;;;4991688;28;20718;-49
2023/03/01 04:13:21;;;;;;;18.97;12.23;;;1.40;99.90;;;;;;4992567;28;20620;-48
2023/03/01 04:15:49;;;;;;;28.77;13.60;;;1.30;99.90;;;;;;4985177;28;20260;-48
2023/03/01 04:18:18;;;;;;;21.07;13.57;;;1.30;99.90;;;;;;4992498;28;20220;-47
2023/03/01 04:20:45;;;;;;;20.63;13.17;;;1.30;99.90;;;;;;4994367;28;20712;-49
2023/03/01 04:23:15;;;;;;;24.77;14.50;;;1.40;99.90;;;;;;4984714;28;20205;-48
2023/03/01 04:25:53;;;;;;;20.73;14.80;;;1.40;99.90;;;;;;4975088;28;20260;-48
2023/03/01 04:28:20;;;;;;;21.90;14.93;;;1.40;99.90;;;;;;4984427;28;20249;-48
2023/03/01 04:30:48;;;;;;;23.70;14.47;;;1.20;99.90;;;;;;4992457;28;20267;-48
2023/03/01 04:33:15;;;;;;;23.53;15.43;;;1.30;99.90;;;;;;4991920;28;20622;-48
2023/03/01 04:35:42;;;;;;;19.70;14.07;;;1.30;99.90;;;;;;4991001;28;20251;-47
2023/03/01 04:38:10;;;;;;;22.23;15.30;;;1.30;99.90;;;;;;4992108;28;20228;-48
2023/03/01 04:40:37;;;;;;;18.77;12.90;;;1.40;99.90;;;;;;4992246;28;20210;-48
2023/03/01 04:43:06;;;;;;;19.40;13.37;;;1.40;99.90;;;;;;4993211;28;20197;-47
2023/03/01 04:45:35;;;;;;;21.10;13.70;;;1.40;99.90;;;;;;4993962;28;20684;-48
2023/03/01 04:48:02;;;;;;;20.87;14.80;;;1.40;99.90;;;;;;4993452;28;20331;-47
2023/03/01 04:50:30;;;;;;;23.03;13.87;;;1.30;99.90;;;;;;4985245;28;20279;-46
2023/03/01 04:52:59;;;;;;;20.20;13.67;;;1.20;99.90;;;;;;4993776;28;20211;-48
2023/03/01 04:55:27;;;;;;;19.37;12.40;;;1.20;99.90;;;;;;4991346;28;20298;-47
2023/03/01 04:57:54;;;;;;;21.27;12.73;;;1.30;99.90;;;;;;4993636;28;20292;-49
2023/03/01 05:00:24;;;;;;;25.30;14.00;;;1.20;99.90;;;;;;4993922;28;20620;-47
2023/03/01 05:02:54;;;;;;;18.70;12.73;;;1.20;99.90;;;;;;4992726;28;20259;-48
2023/03/01 05:05:26;;;;;;;21.07;13.67;;;1.20;99.90;;;;;;4989632;28;20220;-48
2023/03/01 05:07:56;;;;;;;20.80;13.97;;;1.20;99.90;;;;;;4993513;28;20229;-49
2023/03/01 05:10:25;;;;;;;22.77;14.60;;;1.20;99.90;;;;;;4993621;28;20299;-48
2023/03/01 05:12:53;;;;;;;20.50;13.20;;;1.20;99.90;;;;;;4993533;28;20196;-48
2023/03/01 05:15:21;;;;;;;19.83;12.50;;;1.10;99.90;;;;;;4993644;28;20209;-48
2023/03/01 05:17:50;;;;;;;21.70;13.77;;;1.00;99.90;;;;;;4991850;28;20222;-47
2023/03/01 05:20:17;;;;;;;22.40;14.67;;;1.00;99.90;;;;;;4992952;28;20578;-48
2023/03/01 05:22:48;;;;;;;23.13;14.53;;;1.10;99.90;;;;;;4991404;28;20218;-47
2023/03/01 05:25:15;;;;;;;24.00;15.20;;;1.20;99.90;;;;;;4987696;28;20255;-47
2023/03/01 05:27:46;;;;;;;22.13;15.77;;;1.20;99.90;;;;;;4993038;28;20237;-47
2023/03/01 05:30:14;;;;;;;22.20;13.27;;;1.20;99.90;;;;;;4993156;28;20681;-49
2023/03/01 05:32:46;;;;;;;19.43;13.07;;;1.20;99.90;;;;;;4991665;28;20221;-48
2023/03/01 05:35:16;;;;;;;22.77;13.33;;;1.20;99.90;;;;;;4993147;28;20207;-48
2023/03/01 05:37:46;;;;;;;21.87;13.80;;;1.20;99.90;;;;;;4984041;28;20225;-47
2023/03/01 05:40:17;;;;;;;21.37;12.67;;;1.20;99.90;;;;;;4984914;28;20201;-48
2023/03/01 05:42:45;;;;;;;24.40;14.20;;;1.20;99.90;;;;;;4992497;28;20200;-49
2023/03/01 05:45:13;;;;;;;26.37;14.50;;;1.20;99.90;;;;;;4993151;28;20220;-48
2023/03/01 05:47:46;;;;;;;19.53;14.33;;;1.10;99.90;;;;;;4992982;28;20267;-49
2023/03/01 05:50:19;;;;;;;24.00;14.37;;;1.10;99.90;;;;;;4992876;28;20249;-47
2023/03/01 05:52:50;;;;;;;30.97;19.20;;;1.10;99.90;;;;;;4992781;28;20671;-47
2023/03/01 05:55:18;;;;;;;20.17;12.97;;;1.10;99.90;;;;;;4985284;28;20209;-47
2023/03/01 05:57:49;;;;;;;24.33;14.30;;;1.10;99.90;;;;;;4990395;28;20303;-49
2023/03/01 06:00:18;;;;;;;21.37;12.63;;;1.10;99.90;;;;;;4985706;28;20205;-49
2023/03/01 06:02:45;;;;;;;18.97;12.50;;;1.10;99.90;;;;;;4991052;28;20714;-47
2023/03/01 06:05:16;;;;;;;18.17;11.57;;;1.10;99.90;;;;;;4991897;28;20207;-47
2023/03/01 06:07:43;;;;;;;24.90;13.67;;;1.20;99.90;;;;;;4990607;28;20634;-47
2023/03/01 06:10:12;;;;;;;21.43;13.47;;;1.20;99.90;;;;;;4989146;28;20201;-50
2023/03/01 06:12:44;;;;;;;23.47;13.63;;;1.20;99.90;;;;;;4987363;28;20287;-49
2023/03/01 06:15:13;;;;;;;21.63;14.33;;;1.30;99.90;;;;;;4987805;28;20682;-48
2023/03/01 06:17:46;;;;;;;20.47;12.60;;;1.30;99.90;;;;;;4986580;28;20229;-48
2023/03/01 06:20:17;;;;;;;18.03;10.80;;;1.20;99.90;;;;;;4987959;28;20257;-48
2023/03/01 06:22:44;;;;;;;24.43;14.17;;;1.10;99.90;;;;;;4991138;28;20199;-47
2023/03/01 06:25:13;;;;;;;20.50;13.27;;;1.20;99.90;;;;;;4991598;28;20201;-48
2023/03/01 06:27:40;;;;;;;28.50;15.23;;;1.30;99.90;;;;;;4991060;28;20225;-48
2023/03/01 06:30:10;;;;;;;22.77;13.93;;;1.20;99.90;;;;;;4986243;28;20268;-47
2023/03/01 06:32:37;;;;;;;18.83;12.03;;;1.20;99.90;;;;;;4986495;28;20703;-49
2023/03/01 06:35:05;;;;;;;21.07;12.57;;;1.30;99.90;;;;;;4988843;28;20214;-48
2023/03/01 06:37:35;;;;;;;36.57;19.77;;;1.20;99.90;;;;;;4990498;28;20221;-48
2023/03/01 06:40:04;;;;;;;117.67;39.20;;;1.20;99.90;;;;;;4992119;28;20205;-47
2023/03/01 06:42:31;;;;;;;55.03;27.70;;;1.20;99.90;;;;;;4990633;28;20855;-49
2023/03/01 06:44:58;;;;;;;40.50;21.67;;;1.20;99.90;;;;;;4982225;28;20239;-48
2023/03/01 06:47:25;;;;;;;49.45;42.72;;;1.20;99.90;;;;;;4986739;28;20460;-48
2023/03/01 06:49:52;;;;;;;26.30;18.87;;;1.20;99.90;;;;;;4990539;28;21030;-49
2023/03/01 06:52:19;;;;;;;21.70;13.37;;;1.20;99.90;;;;;;4987969;28;20230;-47
2023/03/01 06:54:48;;;;;;;22.37;16.97;;;1.20;99.90;;;;;;4989824;28;20275;-49
2023/03/01 06:57:15;;;;;;;23.93;15.97;;;1.30;99.90;;;;;;4989383;28;20268;-49
2023/03/01 06:59:42;;;;;;;19.23;12.40;;;1.30;99.90;;;;;;4990729;28;20351;-48
2023/03/01 07:02:11;;;;;;;18.67;12.47;;;1.20;99.90;;;;;;4989980;28;20250;-48
2023/03/01 07:04:38;;;;;;;19.33;12.47;;;1.20;99.90;;;;;;4990136;28;20255;-47
2023/03/01 07:07:05;;;;;;;21.13;15.00;;;1.30;99.90;;;;;;4991419;28;20230;-49
2023/03/01 07:09:33;;;;;;;17.27;11.43;;;1.30;99.90;;;;;;4991325;28;20221;-47
2023/03/01 07:12:01;;;;;;;19.10;13.03;;;1.30;99.90;;;;;;4991818;28;20225;-48
2023/03/01 07:14:28;;;;;;;27.97;22.80;;;1.40;99.90;;;;;;4991718;28;20208;-48
2023/03/01 07:16:56;;;;;;;21.57;14.47;;;1.50;99.90;;;;;;4987882;28;20259;-48
2023/03/01 07:19:24;;;;;;;24.03;15.80;;;1.50;99.90;;;;;;4988526;28;20657;-49
2023/03/01 07:21:51;;;;;;;20.63;13.80;;;1.60;99.90;;;;;;4983224;28;20208;-47
2023/03/01 07:24:18;;;;;;;19.03;12.47;;;1.70;99.90;;;;;;4991308;28;20237;-48
2023/03/01 07:26:48;;;;;;;20.00;13.97;;;1.60;99.90;;;;;;4991592;28;20201;-49
2023/03/01 07:29:17;;;;;;;25.70;18.13;;;1.70;99.90;;;;;;4990630;28;20221;-49
2023/03/01 07:31:45;;;;;;;22.33;14.00;;;1.80;99.90;;;;;;4990305;28;20224;-47
2023/03/01 07:34:12;;;;;;;19.47;13.33;;;1.80;99.90;;;;;;4991705;28;20275;-49
2023/03/01 07:36:42;;;;;;;21.10;14.10;;;1.80;99.90;;;;;;4991478;28;20679;-47
2023/03/01 07:39:10;;;;;;;19.23;12.47;;;1.80;99.90;;;;;;4989963;28;20777;-49
2023/03/01 07:41:37;;;;;;;26.20;18.50;;;1.80;99.90;;;;;;4988213;28;20574;-48
2023/03/01 07:44:05;;;;;;;21.17;13.87;;;1.80;99.90;;;;;;4994373;28;20267;-48
2023/03/01 07:46:33;;;;;;;19.47;12.33;;;1.80;99.90;;;;;;4994450;28;20201;-48
2023/03/01 07:49:01;;;;;;;19.40;11.67;;;1.80;99.90;;;;;;4991422;28;20242;-49
2023/03/01 07:51:28;;;;;;;19.90;12.47;;;1.80;99.90;;;;;;4995070;28;20220;-48
2023/03/01 07:53:55;;;;;;;28.90;19.43;;;1.90;99.90;;;;;;4994796;28;20219;-47
2023/03/01 07:56:22;;;;;;;22.77;13.27;;;1.90;99.90;;;;;;4994034;28;20251;-50
2023/03/01 07:58:49;;;;;;;20.17;15.17;;;2.00;99.90;;;;;;4992509;28;20635;-50
2023/03/01 08:01:18;;;;;;;17.33;12.23;;;2.00;99.90;;;;;;4994914;28;20244;-48
2023/03/01 08:03:47;;;;;;;18.90;12.33;;;2.10;99.90;;;;;;4994783;28;20205;-49
2023/03/01 08:06:15;;;;;;;18.50;11.90;;;2.00;99.90;;;;;;4978416;28;20264;-48
2023/03/01 08:08:42;;;;;;;18.83;10.87;;;2.10;99.90;;;;;;4988365;28;20224;-50
2023/03/01 08:11:13;;;;;;;18.73;12.27;;;2.10;99.90;;;;;;4993328;28;20201;-47
2023/03/01 08:13:40;;;;;;;21.73;16.00;;;2.20;99.90;;;;;;4993014;28;20208;-49
2023/03/01 08:16:10;;;;;;;21.40;13.30;;;2.20;99.90;;;;;;4994558;28;20204;-47
2023/03/01 08:18:37;;;;;;;20.73;15.53;;;2.10;99.90;;;;;;4993424;28;20220;-48
2023/03/01 08:21:08;;;;;;;19.57;12.63;;;2.10;99.90;;;;;;4993377;28;20206;-48
2023/03/01 08:23:35;;;;;;;24.80;15.47;;;2.10;99.90;;;;;;4991220;28;20662;-49
2023/03/01 08:26:07;;;;;;;19.30;12.47;;;2.10;99.90;;;;;;4994547;28;20200;-48
2023/03/01 08:28:34;;;;;;;22.73;14.27;;;2.10;99.90;;;;;;4993487;28;20226;-48
2023/03/01 08:31:01;;;;;;;19.70;11.97;;;2.10;99.90;;;;;;4990709;28;20204;-47
2023/03/01 08:33:28;;;;;;;21.23;14.90;;;2.20;99.90;;;;;;4994304;28;20228;-48
2023/03/01 08:36:04;;;;;;;20.30;13.73;;;2.30;99.90;;;;;;4994155;28;20741;-48
2023/03/01 08:38:32;;;;;;;26.07;18.27;;;2.50;99.90;;;;;;4992883;28;20788;-49
2023/03/01 08:41:01;;;;;;;24.13;14.73;;;2.60;99.90;;;;;;4984095;28;20207;-49
2023/03/01 08:43:28;;;;;;;20.83;13.77;;;2.70;99.90;;;;;;4985270;28;20197;-48
2023/03/01 08:45:55;;;;;;;19.90;11.77;;;2.70;99.90;;;;;;4993996;28;20272;-48
2023/03/01 08:48:22;;;;;;;15.90;11.00;;;2.80;99.90;;;;;;4993641;28;20286;-48
2023/03/01 08:50:49;;;;;;;22.23;15.20;;;2.90;99.90;;;;;;4991230;28;20209;-49
2023/03/01 08:53:16;;;;;;;20.03;12.80;;;3.00;99.90;;;;;;4992258;28;20225;-48
2023/03/01 08:55:44;;;;;;;17.43;13.33;;;3.00;99.90;;;;;;4993628;28;20252;-48
2023/03/01 08:58:11;;;;;;;18.53;13.10;;;3.10;99.90;;;;;;4993776;28;20225;-49
2023/03/01 09:00:39;;;;;;;21.03;15.63;;;3.10;99.90;;;;;;4992729;28;20772;-49
2023/03/01 09:03:07;;;;;;;18.83;12.60;;;3.10;99.90;;;;;;4988583;28;20759;-48
2023/03/01 09:05:35;;;;;;;21.70;16.00;;;3.10;99.90;;;;;;4992124;28;20268;-48
2023/03/01 09:08:02;;;;;;;19.43;12.57;;;3.10;99.90;;;;;;4989308;28;20774;-50
2023/03/01 09:10:29;;;;;;;20.87;15.33;;;3.10;99.90;;;;;;5000109;28;20208;-48
2023/03/01 09:12:58;;;;;;;17.60;12.23;;;3.20;99.90;;;;;;4992754;28;20272;-49
2023/03/01 09:15:25;;;;;;;26.37;18.33;;;3.30;99.90;;;;;;4993128;28;20740;-47
2023/03/01 09:17:52;;;;;;;15.37;11.47;;;3.40;99.90;;;;;;4993550;28;20229;-49
2023/03/01 09:20:19;;;;;;;18.90;12.63;;;3.60;99.90;;;;;;4992987;28;20782;-47
2023/03/01 09:22:46;;;;;;;28.47;22.33;;;3.60;99.90;;;;;;4992312;28;20691;-49
2023/03/01 09:25:13;;;;;;;17.53;12.03;;;3.60;99.90;;;;;;4993185;28;20252;-49
2023/03/01 09:27:39;;;;;;;25.07;19.00;;;3.70;99.90;;;;;;4993090;28;20270;-49
2023/03/01 09:30:12;;;;;;;22.10;15.87;;;3.60;99.90;;;;;;4993136;28;20202;-50
2023/03/01 09:32:42;;;;;;;31.00;21.90;;;3.70;99.90;;;;;;4992327;28;20263;-46
2023/03/01 09:35:09;;;;;;;22.47;15.10;;;3.70;99.90;;;;;;4992653;28;20279;-49
2023/03/01 09:37:37;;;;;;;18.83;12.47;;;3.70;99.90;;;;;;4992829;28;20233;-48
2023/03/01 09:40:06;;;;;;;21.30;15.50;;;3.70;99.90;;;;;;4992827;28;20293;-49
2023/03/01 09:42:35;;;;;;;22.30;13.57;;;3.70;99.90;;;;;;4992093;28;20198;-48
2023/03/01 09:45:05;;;;;;;22.53;12.67;;;3.60;99.90;;;;;;4992610;28;20244;-48
2023/03/01 09:47:36;;;;;;;18.40;12.43;;;3.70;99.90;;;;;;4992245;28;20233;-48
2023/03/01 09:50:10;;;;;;;18.77;12.67;;;3.80;99.90;;;;;;4993070;28;20206;-50
2023/03/01 09:52:44;;;;;;;16.83;12.20;;;3.90;99.90;;;;;;4991614;28;20211;-47
2023/03/01 09:55:14;;;;;;;19.57;11.50;;;4.00;99.90;;;;;;4984824;28;20660;-49
2023/03/01 09:57:49;;;;;;;15.17;11.07;;;4.00;99.90;;;;;;4992923;28;20218;-48
2023/03/01 10:00:34;;;;;;;18.60;11.37;;;4.10;99.90;;;;;;4992915;28;20271;-49
2023/03/01 10:03:15;;;;;;;15.37;10.60;;;4.30;99.90;;;;;;4992425;28;20284;-48
2023/03/01 10:05:49;;;;;;;15.33;10.53;;;4.30;99.90;;;;;;4992146;28;20272;-48
2023/03/01 10:08:32;;;;;;;13.37;9.93;;;4.30;99.90;;;;;;4992155;28;20268;-50
2023/03/01 10:10:59;;;;;;;17.07;10.67;;;4.30;99.90;;;;;;4991946;28;20206;-48
2023/03/01 10:13:34;;;;;;;15.93;11.33;;;4.30;99.90;;;;;;4983882;28;20272;-48
2023/03/01 10:16:10;;;;;;;13.63;9.87;;;4.40;99.90;;;;;;4991035;28;20571;-49
2023/03/01 10:18:39;;;;;;;14.13;9.97;;;4.60;99.90;;;;;;4992264;28;20224;-49
2023/03/01 10:21:15;;;;;;;14.63;10.20;;;4.70;99.90;;;;;;4992931;28;20206;-49
2023/03/01 10:23:42;;;;;;;16.40;10.20;;;4.90;99.90;;;;;;4992464;28;20200;-49
2023/03/01 10:26:29;;;;;;;13.70;10.33;;;5.00;99.90;;;;;;4991323;28;20209;-49
2023/03/01 10:29:03;;;;;;;13.87;10.20;;;5.10;99.90;;;;;;4992427;28;20275;-49
2023/03/01 10:31:40;;;;;;;15.80;10.67;;;5.10;99.90;;;;;;4992641;28;20214;-50
2023/03/01 10:34:13;;;;;;;18.13;11.67;;;5.40;99.90;;;;;;4991666;28;20316;-47
2023/03/01 10:36:41;;;;;;;17.20;11.07;;;5.30;99.90;;;;;;4992130;28;20197;-50
2023/03/01 10:39:15;;;;;;;18.73;10.93;;;5.20;99.90;;;;;;4992229;28;20250;-49
2023/03/01 10:41:55;;;;;;;15.07;10.00;;;5.20;99.90;;;;;;4992279;28;20206;-48
2023/03/01 10:44:40;;;;;;;16.47;10.60;;;5.50;99.90;;;;;;4989150;28;20631;-49
2023/03/01 10:47:20;;;;;;;15.60;11.50;;;5.60;99.90;;;;;;4992017;28;20196;-48
2023/03/01 10:50:00;;;;;;;15.20;10.93;;;5.40;99.90;;;;;;4992322;28;20233;-49
2023/03/01 10:52:30;;;;;;;17.57;12.13;;;5.40;99.90;;;;;;4990892;28;20221;-48
2023/03/01 10:55:00;;;;;;;16.87;11.27;;;5.10;99.90;;;;;;4991245;28;20205;-49
2023/03/01 10:57:35;;;;;;;15.70;10.73;;;5.10;99.90;;;;;;4990871;28;20252;-48
2023/03/01 11:00:23;;;;;;;16.40;11.80;;;5.30;99.90;;;;;;4987809;28;20202;-48
2023/03/01 11:03:02;;;;;;;15.07;11.07;;;5.30;99.90;;;;;;4991786;28;20289;-47
2023/03/01 11:05:33;;;;;;;15.53;10.90;;;5.30;99.90;;;;;;4982883;28;20197;-48
2023/03/01 11:08:02;;;;;;;13.93;10.80;;;5.30;99.90;;;;;;4972810;28;20228;-48
2023/03/01 11:10:32;;;;;;;16.80;11.57;;;5.30;99.90;;;;;;4982758;28;20212;-49
2023/03/01 11:13:14;;;;;;;16.33;12.03;;;5.30;99.90;;;;;;4983957;28;20236;-48
2023/03/01 11:15:42;;;;;;;16.63;11.20;;;5.40;99.90;;;;;;4991459;28;20207;-47
2023/03/01 11:18:21;;;;;;;16.87;11.43;;;5.40;99.90;;;;;;4994595;28;20233;-48
2023/03/01 11:20:52;;;;;;;16.85;11.80;;;5.50;99.90;;;;;;4994316;28;20444;-49
2023/03/01 11:23:21;;;;;;;16.03;10.87;;;5.50;99.90;;;;;;4994339;28;20714;-49
2023/03/01 11:25:55;;;;;;;16.27;11.13;;;5.70;99.90;;;;;;4995213;28;20744;-48
2023/03/01 11:28:23;;;;;;;17.43;11.07;;;6.00;99.90;;;;;;4994248;28;20782;-49
2023/03/01 11:30:55;;;;;;;18.00;11.57;;;6.20;99.90;;;;;;4993591;28;20214;-49
2023/03/01 11:33:36;;;;;;;15.27;11.27;;;6.70;99.90;;;;;;4995153;28;20273;-48
2023/03/01 11:36:12;;;;;;;17.40;11.70;;;7.10;99.90;;;;;;4988595;28;20210;-50
2023/03/01 11:38:40;;;;;;;14.13;10.50;;;6.90;99.90;;;;;;4994999;28;20303;-49
2023/03/01 11:41:12;;;;;;;14.67;10.40;;;7.00;99.90;;;;;;4995083;28;20207;-48
2023/03/01 11:43:50;;;;;;;16.97;10.70;;;6.70;99.90;;;;;;4994406;28;20257;-48
2023/03/01 11:46:36;;;;;;;17.30;11.57;;;6.20;99.90;;;;;;4994779;28;20197;-48
2023/03/01 11:49:25;;;;;;;15.83;11.17;;;5.80;99.90;;;;;;4994580;28;20237;-47
2023/03/01 11:52:04;;;;;;;17.53;11.50;;;5.70;99.90;;;;;;4994757;28;20264;-49
2023/03/01 11:54:48;;;;;;;14.57;11.03;;;5.70;99.90;;;;;;4994443;28;20641;-50
2023/03/01 11:57:24;;;;;;;20.23;13.20;;;5.80;99.90;;;;;;4988717;28;20200;-47
2023/03/01 12:00:18;;;;;;;19.27;13.10;;;5.80;99.90;;;;;;4994684;28;20629;-48
2023/03/01 12:03:19;;;;;;;18.17;12.50;;;5.60;99.90;;;;;;4982575;28;20202;-48
2023/03/01 12:06:17;;;;;;;16.07;10.73;;;5.40;99.90;;;;;;4981493;28;20213;-48
2023/03/01 12:08:56;;;;;;;18.27;12.37;;;5.40;99.90;;;;;;4980766;28;20226;-49
2023/03/01 12:11:40;;;;;;;20.30;12.87;;;5.40;99.90;;;;;;4991147;28;20199;-49
2023/03/01 12:14:33;;;;;;;16.80;11.40;;;5.00;99.90;;;;;;4987328;28;20567;-49
2023/03/01 12:17:25;;;;;;;18.73;13.20;;;4.90;99.90;;;;;;4986919;28;20834;-49
2023/03/01 12:20:29;;;;;;;16.47;12.00;;;4.90;99.90;;;;;;4992473;28;20206;-48
2023/03/01 12:23:17;;;;;;;15.93;11.63;;;5.10;99.90;;;;;;4948002;28;20190;-47
2023/03/01 12:25:54;;;;;;;18.23;11.10;;;5.40;99.90;;;;;;4992971;28;20205;-48
2023/03/01 12:28:36;;;;;;;18.27;12.70;;;5.60;99.90;;;;;;4993336;28;20284;-48
2023/03/01 12:31:31;;;;;;;18.20;11.70;;;5.80;99.90;;;;;;4994312;28;20213;-48
2023/03/01 12:34:04;;;;;;;20.53;12.50;;;5.80;99.90;;;;;;4993704;28;20279;-49
2023/03/01 12:36:49;;;;;;;20.30;12.60;;;5.70;99.90;;;;;;4994140;28;20202;-47
2023/03/01 12:39:27;;;;;;;16.90;12.37;;;5.40;99.90;;;;;;4993858;28;20264;-47
2023/03/01 12:42:06;;;;;;;24.07;13.50;;;5.50;99.90;;;;;;4993950;28;20209;-49
2023/03/01 12:44:51;;;;;;;22.63;13.87;;;5.40;99.90;;;;;;4993066;28;20272;-47
2023/03/01 12:47:32;;;;;;;17.27;12.37;;;5.30;99.90;;;;;;4993760;28;20198;-48
2023/03/01 12:50:03;;;;;;;19.97;13.57;;;5.40;99.90;;;;;;4993574;28;20263;-48
2023/03/01 12:52:38;;;;;;;21.07;13.50;;;5.50;99.90;;;;;;4987158;28;20201;-49
2023/03/01 12:55:20;;;;;;;18.43;12.17;;;5.60;99.90;;;;;;4974593;28;20204;-49
2023/03/01 12:57:57;;;;;;;23.50;13.40;;;5.90;99.90;;;;;;4986741;28;20230;-48